createdAt,value
2018-12-09T00:00:24.213Z,0.60
2018-12-09T00:02:54.139Z,0.80
2018-12-09T00:05:23.041Z,0.70
2018-12-09T00:07:52.275Z,1.13
2018-12-09T00:10:20.830Z,0.83
2018-12-09T00:12:49.431Z,0.47
2018-12-09T00:15:24.584Z,0.40
2018-12-09T00:17:53.420Z,0.30
2018-12-09T00:20:21.926Z,0.30
2018-12-09T00:22:50.631Z,0.23
2018-12-09T00:25:19.114Z,0.60
2018-12-09T00:27:47.655Z,0.30
2018-12-09T00:30:16.186Z,0.40
2018-12-09T00:32:44.757Z,0.30
2018-12-09T00:35:13.385Z,0.30
2018-12-09T00:37:42.278Z,0.50
2018-12-09T00:40:11.630Z,0.63
2018-12-09T00:42:43.524Z,0.97
2018-12-09T00:45:10.949Z,0.50
2018-12-09T00:47:39.736Z,0.70
2018-12-09T00:50:08.592Z,0.50
2018-12-09T00:52:37.146Z,0.40
2018-12-09T00:55:06.465Z,0.90
2018-12-09T00:57:34.999Z,0.60
2018-12-09T01:00:03.733Z,0.40
2018-12-09T01:02:32.178Z,0.80
2018-12-09T01:05:00.698Z,0.60
2018-12-09T01:07:29.245Z,0.40
2018-12-09T01:09:57.773Z,0.30
2018-12-09T01:12:26.488Z,0.20
2018-12-09T01:14:55.247Z,0.40
2018-12-09T01:17:24.574Z,0.37
2018-12-09T01:19:53.230Z,1.87
2018-12-09T01:22:21.764Z,2.50
2018-12-09T01:24:50.273Z,1.80
2018-12-09T01:27:18.879Z,1.90
2018-12-09T01:29:48.091Z,1.17
2018-12-09T01:32:16.673Z,2.60
2018-12-09T01:34:45.204Z,1.07
2018-12-09T01:37:13.925Z,7.47
2018-12-09T01:39:43.047Z,1.40
2018-12-09T01:42:11.549Z,1.93
2018-12-09T01:44:40.098Z,1.70
2018-12-09T01:47:08.674Z,1.50
2018-12-09T01:49:37.272Z,1.90
2018-12-09T01:52:06.216Z,1.90
2018-12-09T01:54:34.696Z,2.63
2018-12-09T01:57:03.425Z,1.80
2018-12-09T01:59:31.983Z,1.50
2018-12-09T02:02:01.039Z,1.40
2018-12-09T02:04:29.699Z,1.50
2018-12-09T02:06:58.553Z,1.00
2018-12-09T02:09:27.850Z,0.87
2018-12-09T02:11:57.218Z,1.10
2018-12-09T02:14:25.847Z,1.37
2018-12-09T02:16:54.585Z,1.50
2018-12-09T02:19:24.553Z,1.13
2018-12-09T02:21:53.661Z,0.80
2018-12-09T02:24:22.862Z,0.80
2018-12-09T02:26:52.016Z,0.63
2018-12-09T02:29:20.810Z,0.60
2018-12-09T02:31:49.614Z,1.40
2018-12-09T02:34:18.087Z,0.40
2018-12-09T02:36:46.872Z,1.00
2018-12-09T02:39:15.560Z,0.40
2018-12-09T02:41:44.142Z,0.47
2018-12-09T02:44:12.716Z,0.47
2018-12-09T02:46:41.366Z,0.50
2018-12-09T02:49:09.849Z,0.80
2018-12-09T02:51:38.354Z,0.80
2018-12-09T02:54:07.085Z,0.57
2018-12-09T02:56:36.161Z,0.40
2018-12-09T02:59:04.801Z,0.53
2018-12-09T03:01:33.356Z,0.80
2018-12-09T03:04:02.010Z,1.00
2018-12-09T03:06:30.503Z,0.80
2018-12-09T03:08:59.094Z,0.87
2018-12-09T03:11:28.286Z,0.77
2018-12-09T03:13:56.833Z,0.60
2018-12-09T03:16:25.665Z,0.40
2018-12-09T03:18:54.624Z,0.30
2018-12-09T03:21:23.245Z,0.50
2018-12-09T03:23:52.151Z,0.30
2018-12-09T03:26:20.689Z,0.80
2018-12-09T03:28:49.491Z,0.40
2018-12-09T03:31:17.938Z,1.23
2018-12-09T03:33:46.521Z,0.70
2018-12-09T03:36:15.027Z,0.80
2018-12-09T03:38:44.412Z,0.90
2018-12-09T03:41:13.591Z,1.13
2018-12-09T03:43:42.086Z,0.90
2018-12-09T03:46:10.818Z,1.03
2018-12-09T03:48:39.380Z,1.17
2018-12-09T03:51:07.954Z,0.97
2018-12-09T03:53:36.578Z,0.83
2018-12-09T03:56:05.203Z,1.47
2018-12-09T03:58:33.663Z,1.07
2018-12-09T04:01:02.160Z,0.97
2018-12-09T04:03:30.662Z,0.80
2018-12-09T04:05:59.985Z,0.80
2018-12-09T04:08:29.110Z,1.47
2018-12-09T04:10:58.052Z,1.33
2018-12-09T04:13:26.558Z,1.47
2018-12-09T04:15:55.540Z,1.17
2018-12-09T04:18:24.108Z,1.37
2018-12-09T04:20:52.664Z,1.00
2018-12-09T04:23:21.227Z,0.90
2018-12-09T04:25:49.730Z,0.80
2018-12-09T04:28:18.329Z,1.10
2018-12-09T04:30:46.920Z,1.30
2018-12-09T04:33:15.550Z,1.10
2018-12-09T04:35:44.693Z,1.60
2018-12-09T04:38:13.212Z,0.93
2018-12-09T04:40:41.753Z,0.90
2018-12-09T04:43:10.272Z,1.07
2018-12-09T04:45:38.893Z,1.10
2018-12-09T04:48:07.604Z,0.50
2018-12-09T04:50:36.518Z,1.00
2018-12-09T04:53:05.030Z,0.80
2018-12-09T04:55:33.734Z,1.13
2018-12-09T04:58:02.308Z,1.40
2018-12-09T05:00:42.347Z,1.53
2018-12-09T05:03:10.841Z,1.60
2018-12-09T05:05:39.477Z,1.57
2018-12-09T05:08:08.661Z,1.40
2018-12-09T05:10:37.725Z,1.30
2018-12-09T05:13:06.233Z,2.23
2018-12-09T05:15:34.894Z,1.50
2018-12-09T05:18:03.965Z,1.93
2018-12-09T05:20:32.544Z,1.37
2018-12-09T05:23:01.737Z,1.60
2018-12-09T05:25:30.777Z,2.03
2018-12-09T05:28:00.255Z,1.77
2018-12-09T05:30:28.969Z,2.37
2018-12-09T05:32:57.466Z,2.67
2018-12-09T05:35:26.050Z,1.90
2018-12-09T05:37:54.522Z,2.17
2018-12-09T05:40:23.662Z,1.93
2018-12-09T05:42:52.838Z,2.60
2018-12-09T05:45:22.091Z,1.77
2018-12-09T05:47:51.345Z,1.50
2018-12-09T05:50:20.502Z,1.60
2018-12-09T05:52:49.215Z,1.60
2018-12-09T05:55:17.870Z,1.87
2018-12-09T05:57:46.709Z,2.40
2018-12-09T06:00:15.793Z,2.20
2018-12-09T06:02:52.758Z,2.13
2018-12-09T06:05:21.587Z,2.00
2018-12-09T06:07:50.472Z,2.60
2018-12-09T06:10:18.979Z,1.93
2018-12-09T06:12:47.623Z,1.60
2018-12-09T06:15:16.299Z,1.97
2018-12-09T06:17:44.836Z,1.87
2018-12-09T06:20:13.617Z,2.10
2018-12-09T06:22:43.131Z,1.90
2018-12-09T06:25:11.669Z,1.90
2018-12-09T06:27:40.222Z,1.83
2018-12-09T06:30:10.703Z,1.70
2018-12-09T06:32:39.466Z,2.13
2018-12-09T06:35:09.476Z,1.63
2018-12-09T06:37:38.053Z,1.70
2018-12-09T06:40:07.073Z,1.60
2018-12-09T06:42:36.046Z,1.40
2018-12-09T06:45:05.817Z,1.60
2018-12-09T06:47:34.411Z,1.40
2018-12-09T06:50:03.356Z,0.97
2018-12-09T06:52:31.960Z,1.20
2018-12-09T06:55:00.597Z,1.47
2018-12-09T06:57:29.246Z,1.50
2018-12-09T06:59:57.798Z,1.13
2018-12-09T07:02:26.571Z,1.43
2018-12-09T07:04:55.083Z,1.70
2018-12-09T07:07:23.989Z,1.57
2018-12-09T07:09:52.639Z,1.30
2018-12-09T07:12:21.495Z,1.40
2018-12-09T07:14:50.074Z,1.67
2018-12-09T07:17:18.720Z,2.17
2018-12-09T07:19:47.233Z,1.43
2018-12-09T07:22:16.230Z,1.93
2018-12-09T07:24:44.872Z,2.33
2018-12-09T07:27:14.094Z,2.53
2018-12-09T07:29:42.705Z,1.53
2018-12-09T07:32:11.321Z,2.67
2018-12-09T07:34:39.946Z,2.83
2018-12-09T07:37:08.531Z,9.17
2018-12-09T07:39:37.136Z,2.50
2018-12-09T07:42:05.674Z,3.33
2018-12-09T07:44:34.218Z,3.27
2018-12-09T07:47:02.735Z,3.27
2018-12-09T07:49:31.409Z,4.50
2018-12-09T07:51:59.921Z,3.23
2018-12-09T07:54:28.413Z,3.30
2018-12-09T07:56:57.009Z,3.00
2018-12-09T07:59:25.668Z,3.03
2018-12-09T08:01:54.225Z,2.53
2018-12-09T08:04:22.856Z,2.70
2018-12-09T08:06:51.411Z,3.17
2018-12-09T08:09:20.010Z,2.60
2018-12-09T08:11:48.533Z,3.43
2018-12-09T08:14:17.611Z,12.17
2018-12-09T08:16:46.264Z,7.10
2018-12-09T08:19:14.959Z,5.57
2018-12-09T08:21:43.481Z,8.90
2018-12-09T08:24:12.020Z,3.47
2018-12-09T08:26:41.329Z,4.70
2018-12-09T08:29:09.863Z,3.50
2018-12-09T08:31:38.407Z,2.77
2018-12-09T08:34:06.952Z,2.60
2018-12-09T08:36:35.539Z,7.37
2018-12-09T08:39:06.016Z,35.33
2018-12-09T08:41:34.708Z,16.43
2018-12-09T08:44:03.266Z,12.50
2018-12-09T08:46:32.094Z,4.23
2018-12-09T08:49:00.593Z,4.53
2018-12-09T08:51:29.171Z,3.73
2018-12-09T08:53:57.723Z,8.93
2018-12-09T08:56:26.343Z,4.27
2018-12-09T08:58:54.933Z,10.50
2018-12-09T09:01:23.509Z,9.27
2018-12-09T09:03:52.086Z,4.27
2018-12-09T09:06:20.987Z,5.77
2018-12-09T09:08:49.579Z,6.20
2018-12-09T09:11:18.142Z,7.00
2018-12-09T09:13:46.655Z,4.83
2018-12-09T09:16:15.280Z,9.53
2018-12-09T09:18:44.654Z,4.53
2018-12-09T09:21:14.042Z,4.40
2018-12-09T09:23:42.602Z,3.90
2018-12-09T09:26:11.484Z,4.00
2018-12-09T09:28:40.023Z,4.57
2018-12-09T09:31:08.611Z,3.70
2018-12-09T09:33:37.197Z,3.20
2018-12-09T09:36:05.820Z,2.83
2018-12-09T09:38:34.390Z,3.17
2018-12-09T09:41:02.998Z,3.53
2018-12-09T09:43:31.566Z,2.90
2018-12-09T09:46:00.381Z,2.50
2018-12-09T09:48:29.097Z,4.27
2018-12-09T09:50:57.776Z,4.03
2018-12-09T09:53:27.271Z,4.40
2018-12-09T09:55:56.441Z,4.70
2018-12-09T09:58:25.562Z,2.90
2018-12-09T10:00:54.986Z,4.03
2018-12-09T10:03:26.075Z,3.17
2018-12-09T10:05:54.321Z,3.67
2018-12-09T10:08:23.523Z,2.73
2018-12-09T10:10:52.684Z,4.47
2018-12-09T10:13:21.195Z,5.00
2018-12-09T10:15:49.790Z,4.67
2018-12-09T10:18:18.444Z,3.50
2018-12-09T10:20:46.975Z,3.67
2018-12-09T10:23:16.134Z,3.73
2018-12-09T10:25:45.013Z,4.97
2018-12-09T10:28:13.820Z,4.70
2018-12-09T10:30:42.509Z,4.30
2018-12-09T10:33:11.124Z,4.50
2018-12-09T10:35:39.717Z,4.93
2018-12-09T10:38:08.311Z,3.83
2018-12-09T10:40:36.854Z,3.40
2018-12-09T10:43:05.377Z,2.80
2018-12-09T10:45:33.988Z,2.80
2018-12-09T10:48:02.523Z,3.70
2018-12-09T10:50:31.560Z,2.27
2018-12-09T10:53:00.853Z,2.83
2018-12-09T10:55:29.496Z,3.00
2018-12-09T10:57:58.124Z,3.50
2018-12-09T11:00:31.920Z,3.20
2018-12-09T11:03:00.543Z,3.43
2018-12-09T11:05:29.306Z,12.57
2018-12-09T11:07:57.919Z,5.07
2018-12-09T11:10:26.840Z,4.60
2018-12-09T11:12:55.383Z,4.20
2018-12-09T11:15:24.233Z,5.30
2018-12-09T11:17:52.918Z,4.27
2018-12-09T11:20:22.217Z,5.00
2018-12-09T11:22:51.041Z,7.60
2018-12-09T11:25:19.869Z,7.17
2018-12-09T11:27:48.455Z,3.37
2018-12-09T11:30:17.261Z,2.23
2018-12-09T11:32:45.895Z,3.13
2018-12-09T11:35:14.627Z,3.07
2018-12-09T11:37:43.326Z,3.00
2018-12-09T11:40:12.227Z,2.40
2018-12-09T11:42:40.779Z,1.93
2018-12-09T11:45:10.376Z,2.43
2018-12-09T11:47:39.115Z,2.27
2018-12-09T11:50:09.251Z,1.93
2018-12-09T11:52:38.213Z,2.90
2018-12-09T11:55:06.971Z,2.47
2018-12-09T11:57:35.941Z,2.10
2018-12-09T12:00:07.945Z,2.70
2018-12-09T12:02:36.908Z,2.07
2018-12-09T12:05:06.425Z,1.93
2018-12-09T12:07:35.146Z,2.10
2018-12-09T12:10:04.663Z,1.70
2018-12-09T12:12:33.463Z,1.80
2018-12-09T12:15:04.963Z,1.60
2018-12-09T12:17:33.891Z,1.97
2018-12-09T12:20:02.449Z,1.83
2018-12-09T12:22:31.736Z,2.10
2018-12-09T12:25:00.287Z,4.20
2018-12-09T12:27:28.850Z,3.67
2018-12-09T12:29:57.475Z,6.10
2018-12-09T12:32:26.077Z,9.77
2018-12-09T12:34:54.880Z,7.60
2018-12-09T12:37:23.547Z,10.37
2018-12-09T12:39:52.247Z,11.30
2018-12-09T12:42:21.605Z,7.37
2018-12-09T12:44:50.809Z,10.53
2018-12-09T12:47:20.052Z,7.80
2018-12-09T12:49:48.917Z,4.57
2018-12-09T12:52:17.534Z,13.83
2018-12-09T12:54:46.168Z,7.80
2018-12-09T12:57:14.837Z,10.97
2018-12-09T12:59:43.813Z,10.67
2018-12-09T13:02:12.435Z,14.10
2018-12-09T13:04:41.233Z,10.90
2018-12-09T13:07:09.930Z,5.53
2018-12-09T13:09:38.489Z,8.83
2018-12-09T13:12:07.330Z,7.50
2018-12-09T13:14:35.942Z,4.97
2018-12-09T13:17:04.813Z,4.33
2018-12-09T13:19:33.440Z,2.67
2018-12-09T13:22:02.292Z,4.13
2018-12-09T13:24:30.906Z,3.03
2018-12-09T13:26:59.760Z,2.40
2018-12-09T13:29:28.442Z,2.67
2018-12-09T13:31:57.348Z,3.70
2018-12-09T13:34:26.365Z,2.60
2018-12-09T13:36:55.732Z,2.20
2018-12-09T13:39:24.362Z,3.87
2018-12-09T13:41:53.184Z,1.43
2018-12-09T13:44:21.893Z,1.20
2018-12-09T13:46:50.553Z,1.33
2018-12-09T13:49:19.236Z,1.33
2018-12-09T13:51:48.133Z,1.60
2018-12-09T13:54:17.012Z,3.10
2018-12-09T13:56:46.151Z,3.20
2018-12-09T13:59:14.766Z,1.80
2018-12-09T14:01:43.466Z,1.87
2018-12-09T14:04:12.175Z,1.80
2018-12-09T14:06:40.866Z,2.27
2018-12-09T14:09:09.881Z,1.67
2018-12-09T14:11:38.468Z,1.87
2018-12-09T14:14:07.310Z,1.70
2018-12-09T14:16:35.932Z,2.30
2018-12-09T14:19:04.491Z,2.60
2018-12-09T14:21:33.250Z,2.50
2018-12-09T14:24:01.890Z,2.17
2018-12-09T14:26:31.258Z,2.10
2018-12-09T14:29:00.982Z,1.70
2018-12-09T14:31:31.531Z,1.63
2018-12-09T14:34:00.389Z,3.00
2018-12-09T14:36:33.531Z,4.97
2018-12-09T14:39:02.196Z,2.07
2018-12-09T14:41:30.987Z,5.10
2018-12-09T14:43:59.934Z,7.60
2018-12-09T14:46:28.647Z,3.27
2018-12-09T14:48:57.329Z,4.40
2018-12-09T14:51:25.938Z,2.13
2018-12-09T14:53:54.965Z,2.27
2018-12-09T14:56:23.712Z,1.57
2018-12-09T14:58:52.846Z,1.50
2018-12-09T15:01:21.631Z,1.70
2018-12-09T15:03:50.236Z,1.30
2018-12-09T15:06:19.513Z,2.50
2018-12-09T15:08:48.095Z,2.83
2018-12-09T15:11:17.212Z,1.90
2018-12-09T15:13:46.012Z,2.90
2018-12-09T15:16:14.608Z,3.27
2018-12-09T15:18:43.227Z,4.03
2018-12-09T15:21:11.886Z,2.10
2018-12-09T15:23:40.528Z,2.63
2018-12-09T15:26:09.192Z,2.63
2018-12-09T15:28:38.239Z,3.40
2018-12-09T15:31:06.904Z,2.90
2018-12-09T15:33:35.541Z,1.77
2018-12-09T15:36:04.198Z,5.20
2018-12-09T15:38:32.874Z,5.17
2018-12-09T15:41:01.558Z,11.57
2018-12-09T15:43:30.279Z,10.20
2018-12-09T15:45:59.765Z,13.70
2018-12-09T15:48:28.493Z,29.47
2018-12-09T15:50:57.632Z,23.60
2018-12-09T15:53:26.373Z,20.93
2018-12-09T15:55:55.241Z,16.43
2018-12-09T15:58:23.864Z,6.73
2018-12-09T16:00:56.885Z,8.20
2018-12-09T16:03:25.642Z,3.00
2018-12-09T16:05:54.508Z,1.23
2018-12-09T16:08:23.326Z,1.00
2018-12-09T16:10:52.030Z,0.97
2018-12-09T16:13:20.810Z,1.60
2018-12-09T16:15:49.498Z,1.40
2018-12-09T16:18:18.197Z,1.80
2018-12-09T16:20:46.904Z,1.93
2018-12-09T16:23:15.740Z,0.93
2018-12-09T16:25:44.534Z,1.40
2018-12-09T16:28:13.263Z,2.20
2018-12-09T16:30:42.099Z,1.57
2018-12-09T16:33:10.837Z,1.70
2018-12-09T16:35:39.491Z,1.47
2018-12-09T16:38:08.463Z,1.40
2018-12-09T16:40:37.276Z,1.10
2018-12-09T16:43:05.968Z,1.40
2018-12-09T16:45:34.684Z,2.27
2018-12-09T16:48:03.504Z,2.07
2018-12-09T16:50:32.797Z,2.90
2018-12-09T16:53:01.830Z,1.30
2018-12-09T16:55:30.450Z,1.20
2018-12-09T16:57:59.154Z,2.07
2018-12-09T17:00:29.464Z,1.30
2018-12-09T17:02:58.399Z,3.07
2018-12-09T17:05:27.210Z,4.20
2018-12-09T17:07:55.884Z,5.17
2018-12-09T17:10:24.538Z,6.30
2018-12-09T17:12:53.330Z,2.73
2018-12-09T17:15:22.074Z,5.13
2018-12-09T17:17:50.992Z,2.63
2018-12-09T17:20:19.716Z,3.33
2018-12-09T17:22:48.663Z,2.60
2018-12-09T17:25:17.799Z,2.77
2018-12-09T17:27:46.709Z,3.10
2018-12-09T17:30:15.498Z,2.90
2018-12-09T17:32:44.397Z,2.10
2018-12-09T17:35:13.813Z,3.43
2018-12-09T17:37:42.538Z,2.73
2018-12-09T17:40:11.140Z,1.73
2018-12-09T17:42:39.966Z,1.70
2018-12-09T17:45:09.623Z,2.60
2018-12-09T17:47:38.996Z,2.63
2018-12-09T17:50:08.648Z,4.10
2018-12-09T17:52:37.604Z,3.20
2018-12-09T17:55:06.724Z,2.07
2018-12-09T17:57:35.559Z,2.20
2018-12-09T18:00:05.161Z,2.00
2018-12-09T18:02:33.810Z,1.87
2018-12-09T18:05:02.440Z,2.03
2018-12-09T18:07:31.202Z,1.97
2018-12-09T18:09:59.953Z,3.30
2018-12-09T18:12:29.360Z,2.03
2018-12-09T18:14:58.276Z,1.60
2018-12-09T18:17:27.025Z,1.83
2018-12-09T18:19:56.382Z,1.93
2018-12-09T18:22:25.011Z,3.03
2018-12-09T18:24:53.737Z,2.23
2018-12-09T18:27:22.420Z,2.20
2018-12-09T18:29:51.165Z,2.40
2018-12-09T18:32:20.492Z,1.87
2018-12-09T18:34:49.372Z,1.80
2018-12-09T18:37:18.192Z,1.97
2018-12-09T18:39:47.011Z,1.30
2018-12-09T18:42:15.871Z,1.80
2018-12-09T18:44:44.753Z,1.30
2018-12-09T18:47:13.450Z,1.87
2018-12-09T18:49:43.140Z,1.40
2018-12-09T18:52:12.505Z,1.43
2018-12-09T18:54:41.132Z,2.90
2018-12-09T18:57:10.018Z,1.40
2018-12-09T18:59:38.737Z,1.93
2018-12-09T19:02:07.539Z,2.00
2018-12-09T19:04:38.018Z,1.73
2018-12-09T19:07:07.082Z,1.40
2018-12-09T19:09:36.136Z,1.30
2018-12-09T19:12:05.077Z,1.70
2018-12-09T19:14:33.882Z,1.70
2018-12-09T19:17:03.038Z,2.30
2018-12-09T19:19:31.947Z,2.17
2018-12-09T19:22:00.838Z,2.87
2018-12-09T19:24:29.827Z,2.43
2018-12-09T19:26:58.622Z,1.90
2018-12-09T19:29:27.595Z,1.60
2018-12-09T19:31:56.536Z,2.20
2018-12-09T19:34:25.420Z,1.97
2018-12-09T19:36:54.292Z,2.20
2018-12-09T19:39:23.302Z,2.10
2018-12-09T19:41:52.799Z,2.17
2018-12-09T19:44:22.743Z,2.27
2018-12-09T19:46:51.487Z,2.97
2018-12-09T19:49:20.187Z,2.00
2018-12-09T19:51:49.288Z,2.90
2018-12-09T19:54:18.391Z,2.97
2018-12-09T19:56:47.132Z,2.60
2018-12-09T19:59:15.906Z,2.70
2018-12-09T20:01:44.804Z,2.93
2018-12-09T20:04:14.382Z,2.70
2018-12-09T20:06:43.074Z,2.83
2018-12-09T20:09:12.698Z,3.53
2018-12-09T20:11:41.298Z,3.77
2018-12-09T20:14:10.222Z,29.77
2018-12-09T20:16:38.878Z,7.57
2018-12-09T20:19:07.614Z,2.70
2018-12-09T20:21:37.095Z,23.87
2018-12-09T20:24:05.828Z,3.43
2018-12-09T20:26:34.705Z,2.20
2018-12-09T20:29:03.516Z,4.40
2018-12-09T20:31:32.515Z,4.20
2018-12-09T20:34:01.182Z,4.47
2018-12-09T20:36:30.446Z,2.37
2018-12-09T20:38:59.245Z,1.87
2018-12-09T20:41:28.044Z,1.87
2018-12-09T20:43:56.695Z,3.40
2018-12-09T20:46:25.794Z,2.10
2018-12-09T20:48:54.422Z,1.50
2018-12-09T20:51:23.751Z,1.33
2018-12-09T20:53:52.708Z,3.13
2018-12-09T20:56:22.352Z,3.17
2018-12-09T20:58:51.742Z,2.10
2018-12-09T21:01:20.780Z,2.43
2018-12-09T21:03:49.512Z,2.73
2018-12-09T21:06:18.337Z,4.17
2018-12-09T21:08:47.131Z,6.90
2018-12-09T21:11:15.923Z,7.20
2018-12-09T21:13:45.103Z,4.67
2018-12-09T21:16:14.221Z,3.37
2018-12-09T21:18:42.851Z,3.23
2018-12-09T21:21:11.554Z,3.17
2018-12-09T21:23:40.182Z,2.53
2018-12-09T21:26:09.101Z,3.50
2018-12-09T21:28:37.914Z,3.50
2018-12-09T21:31:06.624Z,3.70
2018-12-09T21:33:36.491Z,3.17
2018-12-09T21:36:05.805Z,2.93
2018-12-09T21:38:34.464Z,2.63
2018-12-09T21:41:03.470Z,2.73
2018-12-09T21:43:32.199Z,1.97
2018-12-09T21:46:00.726Z,1.53
2018-12-09T21:48:29.753Z,1.40
2018-12-09T21:50:58.337Z,1.83
2018-12-09T21:53:27.443Z,1.60
2018-12-09T21:55:56.079Z,1.63
2018-12-09T21:58:24.959Z,1.67
2018-12-09T22:00:53.582Z,1.63
2018-12-09T22:03:22.482Z,2.03
2018-12-09T22:05:51.108Z,3.97
2018-12-09T22:08:20.118Z,2.67
2018-12-09T22:10:48.917Z,1.60
2018-12-09T22:13:17.770Z,1.70
2018-12-09T22:15:46.636Z,1.73
2018-12-09T22:18:16.002Z,2.10
2018-12-09T22:20:44.652Z,1.50
2018-12-09T22:23:13.261Z,2.07
2018-12-09T22:25:41.905Z,1.30
2018-12-09T22:28:10.487Z,2.13
2018-12-09T22:30:39.977Z,1.60
2018-12-09T22:33:08.683Z,2.00
2018-12-09T22:35:37.370Z,1.50
2018-12-09T22:38:05.997Z,1.90
2018-12-09T22:40:34.936Z,1.60
2018-12-09T22:43:03.507Z,1.70
2018-12-09T22:45:32.467Z,1.53
2018-12-09T22:48:01.908Z,1.60
2018-12-09T22:50:30.503Z,1.50
2018-12-09T22:52:59.069Z,1.50
2018-12-09T22:55:27.765Z,1.87
2018-12-09T22:57:56.371Z,1.30
2018-12-09T23:00:28.325Z,0.97
2018-12-09T23:03:03.764Z,1.00
2018-12-09T23:05:32.425Z,1.30
2018-12-09T23:08:01.169Z,1.60
2018-12-09T23:10:29.644Z,1.20
2018-12-09T23:12:58.186Z,1.03
2018-12-09T23:15:26.782Z,1.47
2018-12-09T23:17:55.476Z,1.07
2018-12-09T23:20:24.483Z,1.10
2018-12-09T23:22:52.986Z,1.20
2018-12-09T23:25:22.000Z,1.20
2018-12-09T23:27:50.540Z,1.30
2018-12-09T23:30:19.059Z,1.37
2018-12-09T23:32:47.516Z,1.30
2018-12-09T23:35:17.465Z,1.77
2018-12-09T23:37:46.176Z,1.50
2018-12-09T23:40:14.735Z,1.40
2018-12-09T23:42:43.418Z,1.60
2018-12-09T23:45:12.145Z,1.83
2018-12-09T23:47:40.641Z,1.30
2018-12-09T23:50:09.216Z,1.50
2018-12-09T23:52:38.633Z,1.70
2018-12-09T23:55:07.333Z,1.43
2018-12-09T23:57:36.045Z,1.53
